createdAt,value
2018-01-24T00:00:03.535Z,3.66
2018-01-24T00:02:29.715Z,3.50
2018-01-24T00:04:55.903Z,3.61
2018-01-24T00:07:22.076Z,3.81
2018-01-24T00:09:48.317Z,3.68
2018-01-24T00:12:14.575Z,3.39
2018-01-24T00:14:40.836Z,3.47
2018-01-24T00:17:07.071Z,3.14
2018-01-24T00:19:33.348Z,3.16
2018-01-24T00:21:59.551Z,3.12
2018-01-24T00:24:25.814Z,3.18
2018-01-24T00:26:52.006Z,3.21
2018-01-24T00:29:18.295Z,3.06
2018-01-24T00:31:44.467Z,2.79
2018-01-24T00:34:10.723Z,3.12
2018-01-24T00:36:36.931Z,3.04
2018-01-24T00:39:03.172Z,3.20
2018-01-24T00:41:29.383Z,3.15
2018-01-24T00:43:55.590Z,3.24
2018-01-24T00:46:21.778Z,3.12
2018-01-24T00:48:48.141Z,3.27
2018-01-24T00:51:14.442Z,3.01
2018-01-24T00:53:40.750Z,2.95
2018-01-24T00:56:06.929Z,3.02
2018-01-24T00:58:33.127Z,3.00
2018-01-24T01:00:59.351Z,3.14
2018-01-24T01:03:25.591Z,3.13
2018-01-24T01:05:51.891Z,3.13
2018-01-24T01:08:18.099Z,2.97
2018-01-24T01:10:44.350Z,3.00
2018-01-24T01:13:10.599Z,3.01
2018-01-24T01:15:36.883Z,2.93
2018-01-24T01:18:03.091Z,2.83
2018-01-24T01:20:29.332Z,2.91
2018-01-24T01:22:55.538Z,3.01
2018-01-24T01:25:21.703Z,2.88
2018-01-24T01:27:47.987Z,3.17
2018-01-24T01:30:14.190Z,3.09
2018-01-24T01:32:40.414Z,2.94
2018-01-24T01:35:06.606Z,2.96
2018-01-24T01:37:32.878Z,3.04
2018-01-24T01:39:59.134Z,3.02
2018-01-24T01:42:25.342Z,2.75
2018-01-24T01:44:51.596Z,2.75
2018-01-24T01:47:17.830Z,2.97
2018-01-24T01:49:44.033Z,2.87
2018-01-24T01:52:10.390Z,2.95
2018-01-24T01:54:36.636Z,2.89
2018-01-24T01:57:02.876Z,2.68
2018-01-24T01:59:29.131Z,2.83
2018-01-24T02:01:55.319Z,2.73
2018-01-24T02:04:21.543Z,2.81
2018-01-24T02:06:47.828Z,2.70
2018-01-24T02:09:14.036Z,2.98
2018-01-24T02:11:40.274Z,2.84
2018-01-24T02:14:06.512Z,2.83
2018-01-24T02:16:32.750Z,2.74
2018-01-24T02:18:58.946Z,2.61
2018-01-24T02:21:25.195Z,2.82
2018-01-24T02:23:51.438Z,2.85
2018-01-24T02:26:17.719Z,2.81
2018-01-24T02:28:43.918Z,2.59
2018-01-24T02:31:10.231Z,2.82
2018-01-24T02:33:36.390Z,2.78
2018-01-24T02:36:02.651Z,2.64
2018-01-24T02:38:35.020Z,2.83
2018-01-24T02:41:01.259Z,2.65
2018-01-24T02:43:27.510Z,2.64
2018-01-24T02:45:53.758Z,2.59
2018-01-24T02:48:19.944Z,2.42
2018-01-24T02:50:46.095Z,2.36
2018-01-24T02:53:12.306Z,2.26
2018-01-24T02:55:38.498Z,2.07
2018-01-24T02:58:04.694Z,2.18
2018-01-24T03:00:31.054Z,2.36
2018-01-24T03:02:57.279Z,2.29
2018-01-24T03:05:23.491Z,2.55
2018-01-24T03:07:49.742Z,2.68
2018-01-24T03:10:15.947Z,2.39
2018-01-24T03:12:42.121Z,2.41
2018-01-24T03:15:08.373Z,2.46
2018-01-24T03:17:34.558Z,2.43
2018-01-24T03:20:00.802Z,2.39
2018-01-24T03:22:27.007Z,2.26
2018-01-24T03:24:53.190Z,2.29
2018-01-24T03:27:19.590Z,2.21
2018-01-24T03:29:45.794Z,2.12
2018-01-24T03:32:11.970Z,2.24
2018-01-24T03:34:38.183Z,2.25
2018-01-24T03:37:04.435Z,2.36
2018-01-24T03:39:30.682Z,2.41
2018-01-24T03:41:56.894Z,2.32
2018-01-24T03:44:23.103Z,2.02
2018-01-24T03:46:49.254Z,2.21
2018-01-24T03:49:15.466Z,2.34
2018-01-24T03:51:41.706Z,2.18
2018-01-24T03:54:07.907Z,2.15
2018-01-24T03:56:34.126Z,2.17
2018-01-24T03:59:00.346Z,2.24
2018-01-24T04:01:26.559Z,2.45
2018-01-24T04:03:52.747Z,2.49
2018-01-24T04:06:18.957Z,2.46
2018-01-24T04:08:45.247Z,2.41
2018-01-24T04:11:11.447Z,2.41
2018-01-24T04:13:37.627Z,2.39
2018-01-24T04:16:03.850Z,2.49
2018-01-24T04:18:30.030Z,2.43
2018-01-24T04:20:56.206Z,2.12
2018-01-24T04:23:22.511Z,2.01
2018-01-24T04:25:48.754Z,2.22
2018-01-24T04:28:14.983Z,2.25
2018-01-24T04:30:41.303Z,1.96
2018-01-24T04:33:07.522Z,1.91
2018-01-24T04:35:33.698Z,2.16
2018-01-24T04:37:59.995Z,2.24
2018-01-24T04:40:26.190Z,2.27
2018-01-24T04:42:52.399Z,2.09
2018-01-24T04:45:18.748Z,1.90
2018-01-24T04:47:44.927Z,1.99
2018-01-24T04:50:11.209Z,1.99
2018-01-24T04:52:37.491Z,2.06
2018-01-24T04:55:03.714Z,1.99
2018-01-24T04:57:30.011Z,1.50
2018-01-24T04:59:56.299Z,1.66
2018-01-24T05:02:22.622Z,1.88
2018-01-24T05:04:48.960Z,1.99
2018-01-24T05:07:15.193Z,1.75
2018-01-24T05:09:41.483Z,1.78
2018-01-24T05:12:09.643Z,1.94
2018-01-24T05:14:35.887Z,1.73
2018-01-24T05:17:02.091Z,1.77
2018-01-24T05:19:28.380Z,1.84
2018-01-24T05:21:54.651Z,1.98
2018-01-24T05:24:20.814Z,1.85
2018-01-24T05:26:47.050Z,1.76
2018-01-24T05:29:13.250Z,1.84
2018-01-24T05:31:39.427Z,2.02
2018-01-24T05:34:05.630Z,1.42
2018-01-24T05:36:31.839Z,1.63
2018-01-24T05:38:58.114Z,1.58
2018-01-24T05:41:24.306Z,1.43
2018-01-24T05:43:50.568Z,1.65
2018-01-24T05:46:16.813Z,1.76
2018-01-24T05:48:43.127Z,1.66
2018-01-24T05:51:09.373Z,1.50
2018-01-24T05:53:35.591Z,1.59
2018-01-24T05:56:01.908Z,1.62
2018-01-24T05:58:28.123Z,1.60
2018-01-24T06:00:54.450Z,1.57
2018-01-24T06:03:20.655Z,1.67
2018-01-24T06:05:46.893Z,1.47
2018-01-24T06:08:13.098Z,1.22
2018-01-24T06:10:39.463Z,1.32
2018-01-24T06:13:05.671Z,1.42
2018-01-24T06:15:31.914Z,1.42
2018-01-24T06:17:58.155Z,1.40
2018-01-24T06:20:24.371Z,1.28
2018-01-24T06:22:50.588Z,1.46
2018-01-24T06:25:16.783Z,0.90
2018-01-24T06:27:42.979Z,0.83
2018-01-24T06:30:09.253Z,1.22
2018-01-24T06:32:35.566Z,1.36
2018-01-24T06:35:01.766Z,1.29
2018-01-24T06:37:28.070Z,1.43
2018-01-24T06:39:54.303Z,1.57
2018-01-24T06:42:20.494Z,1.61
2018-01-24T06:44:46.715Z,1.48
2018-01-24T06:47:12.913Z,1.47
2018-01-24T06:49:39.146Z,1.55
2018-01-24T06:52:05.364Z,1.62
2018-01-24T06:54:31.535Z,1.72
2018-01-24T06:56:57.706Z,1.59
2018-01-24T06:59:24.011Z,1.62
2018-01-24T07:01:50.227Z,1.51
2018-01-24T07:04:16.456Z,1.44
2018-01-24T07:06:42.711Z,1.32
2018-01-24T07:09:08.986Z,1.25
2018-01-24T07:11:35.227Z,1.24
2018-01-24T07:14:07.647Z,1.34
2018-01-24T07:16:33.807Z,1.67
2018-01-24T07:19:00.007Z,1.64
2018-01-24T07:21:26.234Z,1.59
2018-01-24T07:23:52.515Z,1.77
2018-01-24T07:26:18.710Z,1.76
2018-01-24T07:28:44.943Z,1.64
2018-01-24T07:31:11.196Z,1.82
2018-01-24T07:33:37.399Z,1.94
2018-01-24T07:36:03.574Z,1.98
2018-01-24T07:38:29.807Z,2.14
2018-01-24T07:40:56.947Z,2.00
2018-01-24T07:43:23.412Z,2.24
2018-01-24T07:45:49.631Z,2.12
2018-01-24T07:48:15.801Z,2.33
2018-01-24T07:50:42.028Z,2.51
2018-01-24T07:53:08.283Z,2.41
2018-01-24T07:55:34.539Z,2.37
2018-01-24T07:58:00.778Z,2.41
2018-01-24T08:00:27.011Z,2.39
2018-01-24T08:02:53.239Z,2.16
2018-01-24T08:05:19.471Z,2.34
2018-01-24T08:07:45.682Z,2.33
2018-01-24T08:10:12.022Z,2.45
2018-01-24T08:12:38.234Z,2.50
2018-01-24T08:15:04.538Z,2.42
2018-01-24T08:17:30.760Z,2.45
2018-01-24T08:19:56.967Z,2.64
2018-01-24T08:22:23.194Z,2.70
2018-01-24T08:24:49.370Z,2.83
2018-01-24T08:27:15.588Z,2.85
2018-01-24T08:29:41.806Z,3.10
2018-01-24T08:32:07.994Z,3.40
2018-01-24T08:34:34.187Z,3.43
2018-01-24T08:37:00.459Z,3.34
2018-01-24T08:39:26.656Z,3.46
2018-01-24T08:41:52.852Z,3.68
2018-01-24T08:44:19.132Z,3.77
2018-01-24T08:46:45.368Z,3.52
2018-01-24T08:49:11.590Z,3.49
2018-01-24T08:51:37.835Z,3.29
2018-01-24T08:54:04.075Z,3.43
2018-01-24T08:56:30.293Z,3.74
2018-01-24T08:58:56.492Z,3.57
2018-01-24T09:01:22.707Z,3.46
2018-01-24T09:03:48.948Z,3.41
2018-01-24T09:06:15.239Z,3.56
2018-01-24T09:08:41.594Z,3.45
2018-01-24T09:11:07.866Z,3.64
2018-01-24T09:13:34.044Z,3.76
2018-01-24T09:16:00.282Z,3.84
2018-01-24T09:18:26.471Z,3.99
2018-01-24T09:20:52.754Z,3.51
2018-01-24T09:23:19.008Z,3.31
2018-01-24T09:25:45.391Z,3.32
2018-01-24T09:28:11.669Z,3.57
2018-01-24T09:30:37.899Z,3.93
2018-01-24T09:33:04.208Z,4.17
2018-01-24T09:35:30.489Z,4.31
2018-01-24T09:37:56.771Z,4.35
2018-01-24T09:40:23.060Z,4.42
2018-01-24T09:42:49.321Z,4.45
2018-01-24T09:45:15.567Z,4.61
2018-01-24T09:47:41.968Z,4.72
2018-01-24T09:50:08.251Z,4.52
2018-01-24T09:52:34.470Z,4.04
2018-01-24T09:55:00.718Z,3.87
2018-01-24T09:57:27.008Z,3.85
2018-01-24T09:59:53.214Z,4.14
2018-01-24T10:02:19.432Z,3.74
2018-01-24T10:04:45.792Z,3.82
2018-01-24T10:07:11.997Z,3.83
2018-01-24T10:09:38.260Z,3.69
2018-01-24T10:12:04.517Z,4.15
2018-01-24T10:14:30.728Z,4.31
2018-01-24T10:16:56.951Z,4.23
2018-01-24T10:19:23.306Z,4.16
2018-01-24T10:21:49.572Z,4.41
2018-01-24T10:24:15.780Z,4.43
2018-01-24T10:26:42.052Z,4.64
2018-01-24T10:29:08.262Z,4.69
2018-01-24T10:31:34.516Z,4.82
2018-01-24T10:34:00.768Z,4.92
2018-01-24T10:36:27.013Z,4.70
2018-01-24T10:38:53.216Z,4.74
2018-01-24T10:41:19.385Z,4.56
2018-01-24T10:43:45.565Z,4.38
2018-01-24T10:46:11.810Z,4.77
2018-01-24T10:48:38.053Z,5.06
2018-01-24T10:51:04.229Z,5.02
2018-01-24T10:53:30.508Z,5.20
2018-01-24T10:55:56.701Z,5.24
2018-01-24T10:58:22.948Z,4.85
2018-01-24T11:00:49.220Z,4.88
2018-01-24T11:03:15.578Z,5.03
2018-01-24T11:05:41.781Z,4.87
2018-01-24T11:08:08.005Z,5.05
2018-01-24T11:10:34.244Z,5.36
2018-01-24T11:13:00.760Z,4.87
2018-01-24T11:15:27.010Z,4.91
2018-01-24T11:17:53.246Z,5.02
2018-01-24T11:20:19.647Z,4.91
2018-01-24T11:22:46.105Z,4.62
2018-01-24T11:25:12.300Z,4.91
2018-01-24T11:27:38.652Z,5.29
2018-01-24T11:30:04.921Z,5.40
2018-01-24T11:32:31.211Z,5.15
2018-01-24T11:34:57.437Z,5.04
2018-01-24T11:37:23.668Z,5.19
2018-01-24T11:39:49.928Z,5.34
2018-01-24T11:42:16.153Z,5.37
2018-01-24T11:44:42.389Z,5.44
2018-01-24T11:47:08.577Z,5.57
2018-01-24T11:49:34.768Z,5.63
2018-01-24T11:52:01.382Z,5.43
2018-01-24T11:54:27.629Z,5.67
2018-01-24T11:56:53.877Z,5.61
2018-01-24T11:59:20.089Z,5.46
2018-01-24T12:01:46.408Z,5.50
2018-01-24T12:04:12.681Z,5.24
2018-01-24T12:06:38.937Z,5.17
2018-01-24T12:09:05.189Z,5.24
2018-01-24T12:11:31.562Z,5.51
2018-01-24T12:13:57.864Z,5.45
2018-01-24T12:16:24.141Z,5.34
2018-01-24T12:18:50.385Z,5.29
2018-01-24T12:21:16.637Z,5.35
2018-01-24T12:23:42.861Z,5.10
2018-01-24T12:26:09.112Z,4.76
2018-01-24T12:28:35.317Z,5.10
2018-01-24T12:31:01.541Z,5.38
2018-01-24T12:33:27.884Z,5.59
2018-01-24T12:35:54.122Z,5.59
2018-01-24T12:38:20.353Z,5.68
2018-01-24T12:40:46.541Z,5.44
2018-01-24T12:43:12.916Z,5.43
2018-01-24T12:45:39.116Z,5.29
2018-01-24T12:48:05.292Z,5.33
2018-01-24T12:50:31.465Z,5.46
2018-01-24T12:52:57.693Z,5.11
2018-01-24T12:55:24.013Z,5.40
2018-01-24T12:57:50.181Z,5.25
2018-01-24T13:00:16.434Z,5.12
2018-01-24T13:02:42.716Z,5.56
2018-01-24T13:05:09.017Z,5.76
2018-01-24T13:07:35.277Z,5.48
2018-01-24T13:10:01.451Z,5.61
2018-01-24T13:12:27.665Z,5.50
2018-01-24T13:14:54.070Z,5.21
2018-01-24T13:17:20.451Z,5.25
2018-01-24T13:19:46.980Z,5.08
2018-01-24T13:22:13.265Z,5.18
2018-01-24T13:24:39.477Z,5.26
2018-01-24T13:27:05.708Z,5.42
2018-01-24T13:29:31.894Z,5.11
2018-01-24T13:31:58.122Z,5.20
2018-01-24T13:34:24.372Z,5.38
2018-01-24T13:36:50.556Z,5.25
2018-01-24T13:39:16.787Z,5.21
2018-01-24T13:41:43.073Z,5.42
2018-01-24T13:44:09.278Z,5.58
2018-01-24T13:46:35.533Z,5.05
2018-01-24T13:49:02.277Z,4.99
2018-01-24T13:51:28.472Z,4.85
2018-01-24T13:53:54.780Z,5.06
2018-01-24T13:56:21.033Z,4.83
2018-01-24T13:58:47.249Z,5.10
2018-01-24T14:01:13.462Z,5.07
2018-01-24T14:03:39.707Z,4.93
2018-01-24T14:06:06.078Z,4.98
2018-01-24T14:08:32.320Z,5.03
2018-01-24T14:10:58.552Z,5.00
2018-01-24T14:13:24.877Z,4.92
2018-01-24T14:15:51.142Z,5.04
2018-01-24T14:18:17.424Z,5.24
2018-01-24T14:20:43.624Z,5.32
2018-01-24T14:23:09.900Z,5.29
2018-01-24T14:25:36.133Z,5.15
2018-01-24T14:28:02.338Z,4.79
2018-01-24T14:30:28.561Z,4.81
2018-01-24T14:32:54.754Z,4.61
2018-01-24T14:35:20.972Z,4.46
2018-01-24T14:37:47.164Z,4.19
2018-01-24T14:40:13.406Z,4.36
2018-01-24T14:42:39.648Z,4.33
2018-01-24T14:45:05.849Z,4.32
2018-01-24T14:47:32.034Z,4.31
2018-01-24T14:49:58.228Z,4.60
2018-01-24T14:52:24.417Z,4.43
2018-01-24T14:54:50.686Z,4.37
2018-01-24T14:57:16.892Z,4.28
2018-01-24T14:59:43.117Z,4.76
2018-01-24T15:02:09.379Z,4.44
2018-01-24T15:04:35.748Z,4.59
2018-01-24T15:07:02.158Z,4.45
2018-01-24T15:09:28.369Z,4.55
2018-01-24T15:11:54.549Z,4.10
2018-01-24T15:14:20.921Z,4.02
2018-01-24T15:16:47.321Z,4.11
2018-01-24T15:19:13.506Z,4.24
2018-01-24T15:21:39.692Z,4.43
2018-01-24T15:24:05.940Z,4.41
2018-01-24T15:26:32.148Z,4.34
2018-01-24T15:28:58.324Z,4.26
2018-01-24T15:31:24.501Z,4.22
2018-01-24T15:33:50.704Z,4.05
2018-01-24T15:36:16.942Z,3.74
2018-01-24T15:38:44.517Z,3.82
2018-01-24T15:41:10.777Z,3.94
2018-01-24T15:43:36.992Z,3.76
2018-01-24T15:46:03.220Z,3.76
2018-01-24T15:48:29.432Z,3.73
2018-01-24T15:50:55.661Z,3.72
2018-01-24T15:53:21.881Z,3.51
2018-01-24T15:55:48.105Z,3.76
2018-01-24T15:58:14.308Z,3.49
2018-01-24T16:00:40.548Z,3.05
2018-01-24T16:03:06.963Z,3.00
2018-01-24T16:05:33.277Z,3.58
2018-01-24T16:07:59.488Z,3.17
2018-01-24T16:10:25.718Z,3.15
2018-01-24T16:12:51.906Z,3.21
2018-01-24T16:15:18.106Z,3.03
2018-01-24T16:17:44.346Z,3.11
2018-01-24T16:20:10.557Z,2.76
2018-01-24T16:22:36.781Z,3.17
2018-01-24T16:25:02.949Z,3.24
2018-01-24T16:27:29.193Z,3.31
2018-01-24T16:29:55.386Z,3.20
2018-01-24T16:32:21.632Z,3.09
2018-01-24T16:34:47.820Z,3.40
2018-01-24T16:37:14.147Z,3.24
2018-01-24T16:39:40.350Z,3.57
2018-01-24T16:42:06.784Z,3.51
2018-01-24T16:44:32.969Z,3.33
2018-01-24T16:46:59.204Z,3.29
2018-01-24T16:49:25.438Z,2.97
2018-01-24T16:51:51.707Z,3.00
2018-01-24T16:54:17.996Z,3.16
2018-01-24T16:56:44.179Z,3.19
2018-01-24T16:59:10.388Z,3.57
2018-01-24T17:01:36.620Z,3.00
2018-01-24T17:04:02.797Z,2.87
2018-01-24T17:06:28.984Z,2.99
2018-01-24T17:08:55.176Z,3.06
2018-01-24T17:11:21.692Z,2.89
2018-01-24T17:13:48.042Z,2.67
2018-01-24T17:16:14.557Z,3.21
2018-01-24T17:18:40.743Z,2.53
2018-01-24T17:21:06.948Z,2.98
2018-01-24T17:23:33.149Z,3.00
2018-01-24T17:25:59.318Z,2.93
2018-01-24T17:28:25.557Z,3.03
2018-01-24T17:30:51.797Z,2.59
2018-01-24T17:33:17.989Z,2.78
2018-01-24T17:35:44.223Z,2.83
2018-01-24T17:38:10.494Z,2.81
2018-01-24T17:40:36.723Z,2.67
2018-01-24T17:43:02.933Z,2.12
2018-01-24T17:45:29.218Z,2.48
2018-01-24T17:47:55.473Z,2.67
2018-01-24T17:50:21.699Z,2.48
2018-01-24T17:52:47.904Z,2.49
2018-01-24T17:55:14.173Z,2.60
2018-01-24T17:57:40.376Z,2.53
2018-01-24T18:00:06.579Z,2.72
2018-01-24T18:02:32.858Z,2.49
2018-01-24T18:04:59.063Z,2.48
2018-01-24T18:07:25.291Z,2.11
2018-01-24T18:09:51.511Z,2.18
2018-01-24T18:12:17.740Z,2.34
2018-01-24T18:14:43.957Z,2.49
2018-01-24T18:17:10.281Z,2.45
2018-01-24T18:19:36.458Z,2.36
2018-01-24T18:22:02.699Z,2.45
2018-01-24T18:24:28.869Z,2.30
2018-01-24T18:26:55.042Z,2.25
2018-01-24T18:29:21.268Z,2.00
2018-01-24T18:31:47.577Z,2.12
2018-01-24T18:34:13.837Z,2.30
2018-01-24T18:36:40.055Z,2.49
2018-01-24T18:39:06.316Z,2.45
2018-01-24T18:41:32.529Z,2.25
2018-01-24T18:43:58.722Z,2.36
2018-01-24T18:46:24.924Z,2.09
2018-01-24T18:48:51.174Z,2.20
2018-01-24T18:51:17.384Z,2.05
2018-01-24T18:53:43.612Z,1.99
2018-01-24T18:56:09.836Z,1.99
2018-01-24T18:58:36.080Z,2.04
2018-01-24T19:01:02.318Z,2.13
2018-01-24T19:03:29.388Z,2.15
2018-01-24T19:05:55.696Z,2.11
2018-01-24T19:08:21.926Z,2.10
2018-01-24T19:10:48.224Z,2.12
2018-01-24T19:13:14.444Z,2.18
2018-01-24T19:15:41.663Z,1.93
2018-01-24T19:18:07.921Z,2.14
2018-01-24T19:20:34.252Z,1.55
2018-01-24T19:23:00.533Z,1.48
2018-01-24T19:25:26.837Z,1.49
2018-01-24T19:27:53.338Z,1.77
2018-01-24T19:30:20.400Z,1.89
2018-01-24T19:32:48.053Z,2.06
2018-01-24T19:35:14.396Z,1.99
2018-01-24T19:37:41.201Z,1.91
2018-01-24T19:40:07.709Z,1.84
2018-01-24T19:42:33.957Z,1.89
2018-01-24T19:45:00.770Z,1.47
2018-01-24T19:47:27.317Z,1.65
2018-01-24T19:49:54.560Z,1.79
2018-01-24T19:52:21.870Z,1.68
2018-01-24T19:54:48.254Z,2.01
2018-01-24T19:57:14.584Z,1.91
2018-01-24T19:59:40.761Z,2.01
2018-01-24T20:02:07.026Z,1.89
2018-01-24T20:04:34.348Z,1.83
2018-01-24T20:07:00.757Z,1.95
2018-01-24T20:09:27.039Z,1.51
2018-01-24T20:11:53.347Z,1.56
2018-01-24T20:14:19.558Z,1.63
2018-01-24T20:16:45.863Z,1.65
2018-01-24T20:19:13.061Z,1.38
2018-01-24T20:24:12.932Z,1.11
2018-01-24T20:26:39.281Z,1.07
2018-01-24T20:29:05.612Z,1.15
2018-01-24T20:31:31.873Z,1.09
2018-01-24T20:33:58.669Z,1.04
2018-01-24T20:36:24.989Z,0.93
2018-01-24T20:38:53.688Z,0.96
2018-01-24T20:41:20.384Z,0.94
2018-01-24T20:43:46.628Z,0.94
2018-01-24T20:46:13.008Z,0.76
2018-01-24T20:48:39.289Z,0.34
2018-01-24T20:51:05.540Z,0.47
2018-01-24T20:53:31.868Z,0.65
2018-01-24T20:55:58.053Z,0.71
2018-01-24T20:58:24.368Z,0.76
2018-01-24T21:00:50.677Z,0.67
2018-01-24T21:03:16.885Z,0.44
2018-01-24T21:05:46.956Z,0.47
2018-01-24T21:08:13.516Z,0.53
2018-01-24T21:10:39.861Z,0.55
2018-01-24T21:13:06.123Z,0.46
2018-01-24T21:15:32.384Z,0.55
2018-01-24T21:17:58.612Z,0.28
2018-01-24T21:20:24.892Z,0.47
2018-01-24T21:22:51.183Z,0.35
2018-01-24T21:25:17.453Z,0.33
2018-01-24T21:27:43.668Z,0.32
2018-01-24T21:30:15.872Z,0.25
2018-01-24T21:32:48.213Z,0.36
2018-01-24T21:35:20.537Z,0.47
2018-01-24T21:37:46.693Z,0.28
2018-01-24T21:40:13.196Z,0.30
2018-01-24T21:42:39.497Z,0.06
2018-01-24T21:45:05.805Z,0.16
2018-01-24T21:47:32.033Z,0.03
2018-01-24T21:49:58.289Z,-0.15
2018-01-24T21:52:24.516Z,-0.29
2018-01-24T21:54:50.728Z,-0.41
2018-01-24T21:57:17.005Z,-0.43
2018-01-24T21:59:43.255Z,-0.38
2018-01-24T22:02:09.484Z,-0.20
2018-01-24T22:04:35.741Z,-0.18
2018-01-24T22:07:01.963Z,-0.21
2018-01-24T22:09:28.164Z,-0.23
2018-01-24T22:11:54.384Z,-0.39
2018-01-24T22:14:20.687Z,-0.34
2018-01-24T22:16:47.129Z,-0.38
2018-01-24T22:19:13.353Z,-0.39
2018-01-24T22:21:39.558Z,-0.47
2018-01-24T22:24:05.801Z,-0.31
2018-01-24T22:26:32.021Z,-0.34
2018-01-24T22:28:58.249Z,-0.45
2018-01-24T22:31:24.553Z,-0.45
2018-01-24T22:33:50.807Z,-0.37
2018-01-24T22:36:17.063Z,-0.47
2018-01-24T22:38:43.305Z,-0.62
2018-01-24T22:41:09.676Z,-0.51
2018-01-24T22:43:35.923Z,-0.52
2018-01-24T22:46:02.141Z,-0.59
2018-01-24T22:48:28.381Z,-0.67
2018-01-24T22:50:54.560Z,-0.71
2018-01-24T22:53:20.838Z,-0.71
2018-01-24T22:55:47.113Z,-0.94
2018-01-24T22:58:13.377Z,-0.88
2018-01-24T23:00:39.605Z,-0.99
2018-01-24T23:03:05.831Z,-1.15
2018-01-24T23:05:32.021Z,-1.08
2018-01-24T23:07:58.228Z,-1.24
2018-01-24T23:10:24.426Z,-1.20
2018-01-24T23:12:50.608Z,-1.18
2018-01-24T23:15:16.797Z,-1.26
2018-01-24T23:17:43.020Z,-1.70
2018-01-24T23:20:09.373Z,-1.44
2018-01-24T23:22:35.616Z,-1.67
2018-01-24T23:25:01.794Z,-1.80
2018-01-24T23:27:28.017Z,-1.77
2018-01-24T23:29:54.248Z,-1.61
2018-01-24T23:32:20.456Z,-1.47
2018-01-24T23:34:46.642Z,-1.49
2018-01-24T23:37:12.832Z,-1.55
2018-01-24T23:39:39.045Z,-1.55
2018-01-24T23:42:05.241Z,-2.00
2018-01-24T23:44:31.488Z,-1.59
2018-01-24T23:46:57.671Z,-1.32
2018-01-24T23:49:23.865Z,-1.24
2018-01-24T23:51:50.116Z,-1.18
2018-01-24T23:54:16.380Z,-1.00
2018-01-24T23:56:42.572Z,-1.01
2018-01-24T23:59:08.805Z,-1.05
